Time;durP1;ratioP1;P1;durP2;ratioP2;P2;SDS_P1;SDS_P2;PMS_P1;PMS_P2;Temp;Humidity;BMP_temperature;BMP_pressure;BME280_temperature;BME280_humidity;BME280_pressure;Samples;Min_cycle;Max_cycle;Signal;HPM_P1;HPM_P2
2021/04/21 00:00:10;;;;;;;5.50;5.00;;;;;;;7.03;78.62;98699.17;1621483;88;22278;-61
2021/04/21 00:02:38;;;;;;;5.90;5.30;;;;;;;6.99;78.70;98704.55;1621340;88;21158;-61
2021/04/21 00:05:09;;;;;;;5.35;4.85;;;;;;;6.93;78.81;98703.48;1621323;88;21678;-61
2021/04/21 00:07:36;;;;;;;6.87;5.65;;;;;;;6.84;78.95;98705.51;1621372;88;21218;-62
2021/04/21 00:10:07;;;;;;;6.53;5.47;;;;;;;6.78;79.05;98707.51;1621317;88;21222;-61
2021/04/21 00:12:35;;;;;;;7.08;5.45;;;;;;;6.73;79.29;98711.55;1594412;90;22283;-62
2021/04/21 00:15:08;;;;;;;6.35;5.45;;;;;;;6.68;79.50;98715.20;1620684;87;21138;-62
2021/04/21 00:17:37;;;;;;;8.08;6.15;;;;;;;6.65;79.65;98715.31;1619531;88;21099;-61
2021/04/21 00:20:08;;;;;;;6.50;5.78;;;;;;;6.64;79.77;98721.37;1619580;88;21537;-61
2021/04/21 00:22:35;;;;;;;6.12;5.50;;;;;;;6.64;79.84;98724.80;1619488;87;21167;-62
2021/04/21 00:25:04;;;;;;;6.50;5.40;;;;;;;6.65;79.89;98729.08;1592633;90;21532;-61
2021/04/21 00:27:32;;;;;;;6.17;5.58;;;;;;;6.67;79.89;98725.98;1619538;88;21524;-61
2021/04/21 00:30:05;;;;;;;5.75;4.78;;;;;;;6.70;79.90;98734.92;1619495;88;21143;-61
2021/04/21 00:32:34;;;;;;;;;;;;;;;6.70;79.84;98731.05;1621975;88;21095;-62
2021/04/21 00:35:03;;;;;;;7.00;5.35;;;;;;;6.70;79.89;98731.05;1619510;88;20243;-62
2021/04/21 00:37:31;;;;;;;5.50;5.00;;;;;;;6.73;79.89;98729.64;1592626;90;21404;-61
2021/04/21 00:39:58;;;;;;;5.53;5.00;;;;;;;6.77;79.74;98731.67;1619632;88;21599;-61
2021/04/21 00:42:52;;;;;;;6.92;5.03;;;;;;;6.79;79.56;98726.84;1619617;88;21205;-61
2021/04/21 00:45:21;;;;;;;5.22;4.72;;;;;;;6.82;79.45;98726.69;1619666;88;21527;-61
2021/04/21 00:48:11;;;;;;;5.45;4.95;;;;;;;6.86;79.36;98726.13;1592696;90;21107;-61
2021/04/21 00:50:57;;;;;;;4.87;4.40;;;;;;;6.90;79.26;98727.25;1619594;88;21403;-61
2021/04/21 00:53:46;;;;;;;5.20;4.70;;;;;;;6.94;79.04;98724.55;1619596;88;21118;-61
2021/04/21 00:56:30;;;;;;;5.28;4.42;;;;;;;6.93;78.88;98726.30;1619169;88;21527;-61
2021/04/21 00:59:02;;;;;;;7.30;4.60;;;;;;;6.92;78.81;98727.20;1619614;88;21673;-61
2021/04/21 01:01:30;;;;;;;4.83;4.30;;;;;;;6.93;78.79;98725.45;1619756;88;21602;-61
2021/04/21 01:03:58;;;;;;;4.50;4.10;;;;;;;6.94;78.77;98728.44;1592711;90;21244;-61
2021/04/21 01:06:39;;;;;;;6.78;4.78;;;;;;;6.93;78.70;98726.75;1619538;88;21194;-60
2021/04/21 01:09:07;;;;;;;4.55;4.15;;;;;;;6.94;78.69;98729.73;1619551;88;21195;-60
2021/04/21 01:11:45;;;;;;;5.95;4.33;;;;;;;6.94;78.66;98725.40;1619557;88;21120;-61
2021/04/21 01:14:18;;;;;;;5.40;3.90;;;;;;;6.95;78.65;98726.23;1619678;88;21103;-60
2021/04/21 01:16:54;;;;;;;4.37;3.72;;;;;;;6.96;78.63;98727.48;1594455;88;21500;-61
2021/04/21 01:19:42;;;;;;;5.42;4.53;;;;;;;6.95;78.83;98724.95;1621413;88;21539;-61
2021/04/21 01:22:31;;;;;;;4.40;3.98;;;;;;;6.95;79.08;98730.96;1621396;87;21147;-61
2021/04/21 01:25:12;;;;;;;4.58;4.17;;;;;;;6.95;79.28;98734.84;1621265;88;21178;-61
2021/04/21 01:27:59;;;;;;;3.95;3.55;;;;;;;6.96;79.53;98732.64;1620905;88;21174;-61
2021/04/21 01:30:28;;;;;;;4.47;4.08;;;;;;;6.98;79.63;98737.31;1621432;88;21467;-60
2021/04/21 01:33:00;;;;;;;4.60;4.20;;;;;;;6.96;79.85;98734.39;1621401;88;21222;-60
2021/04/21 01:35:28;;;;;;;4.67;4.28;;;;;;;6.97;80.15;98742.54;1594408;90;21151;-60
2021/04/21 01:37:59;;;;;;;4.83;4.42;;;;;;;6.98;80.33;98735.17;1621407;87;21115;-61
2021/04/21 01:40:37;;;;;;;4.78;4.28;;;;;;;6.98;80.55;98736.02;1621579;88;21146;-60
2021/04/21 01:43:21;;;;;;;4.75;4.28;;;;;;;7.00;80.82;98733.34;1621471;88;21527;-60
2021/04/21 01:45:57;;;;;;;5.37;4.60;;;;;;;7.04;81.02;98737.50;1873599;76;22754;-61
2021/04/21 01:48:26;;;;;;;5.85;5.15;;;;;;;6.98;81.32;98741.64;1841708;78;20923;-61
2021/04/21 01:50:54;;;;;;;5.20;4.70;;;;;;;6.99;81.56;98738.16;1841594;78;21349;-61
2021/04/21 01:53:39;;;;;;;5.30;4.80;;;;;;;7.01;81.82;98740.20;1841536;77;21108;-61
2021/04/21 01:56:27;;;;;;;6.12;4.97;;;;;;;7.04;81.89;98738.80;1841650;77;21461;-60
2021/04/21 01:59:06;;;;;;;8.53;5.30;;;;;;;7.06;82.11;98735.70;1841616;78;21474;-61
2021/04/21 02:01:50;;;;;;;5.35;4.83;;;;;;;7.08;82.30;98739.07;1841637;77;21478;-60
2021/04/21 02:04:24;;;;;;;5.30;4.80;;;;;;;7.10;82.43;98734.23;1841654;77;22231;-60
2021/04/21 02:07:37;;;;;;;6.25;5.65;;;;;;;7.11;82.41;98735.08;1841512;77;20896;-61
2021/04/21 02:10:13;;;;;;;6.40;5.58;;;;;;;7.14;82.53;98734.97;1841546;78;20871;-61
2021/04/21 02:12:49;;;;;;;6.37;5.37;;;;;;;7.21;82.47;98742.86;1841544;78;21117;-62
2021/04/21 02:15:49;;;;;;;5.65;5.10;;;;;;;7.19;82.34;98741.62;1841598;78;21050;-61
2021/04/21 02:18:48;;;;;;;8.68;4.87;;;;;;;7.19;82.45;98740.80;1841560;78;22342;-61
2021/04/21 02:21:58;;;;;;;6.33;5.72;;;;;;;7.20;82.77;98743.30;1841414;77;20946;-61
2021/04/21 02:24:34;;;;;;;6.33;5.75;;;;;;;7.25;82.94;98745.27;1808447;79;21049;-61
2021/04/21 02:27:28;;;;;;;6.75;6.15;;;;;;;7.33;83.18;98742.84;1808522;79;21097;-61
2021/04/21 02:30:09;;;;;;;6.10;5.50;;;;;;;7.36;83.16;98744.86;1808549;79;21041;-61
2021/04/21 02:32:51;;;;;;;6.03;5.10;;;;;;;7.35;83.04;98746.20;1782053;79;21404;-61
2021/04/21 02:35:25;;;;;;;5.50;5.00;;;;;;;7.27;83.07;98750.37;1808547;78;21167;-60
2021/04/21 02:38:25;;;;;;;7.28;5.58;;;;;;;7.19;83.18;98748.56;1779449;79;21084;-60
2021/04/21 02:41:16;;;;;;;5.67;5.03;;;;;;;7.13;83.36;98756.55;1808530;78;21500;-60
2021/04/21 02:44:07;;;;;;;5.85;4.92;;;;;;;7.08;83.50;98759.31;1808512;79;21057;-60
2021/04/21 02:46:55;;;;;;;5.65;5.03;;;;;;;7.04;83.64;98764.65;1808522;79;21357;-60
2021/04/21 02:49:50;;;;;;;5.37;4.87;;;;;;;6.99;83.77;98758.84;1808420;79;21073;-60
2021/04/21 02:52:49;;;;;;;6.72;5.92;;;;;;;6.93;84.01;98762.94;1808498;79;21038;-61
2021/04/21 02:55:42;;;;;;;6.53;5.92;;;;;;;6.85;84.23;98761.92;1808430;79;21066;-60
2021/04/21 02:58:38;;;;;;;6.75;5.62;;;;;;;6.79;84.43;98762.17;1808063;78;21085;-61
2021/04/21 03:01:26;;;;;;;6.03;5.42;;;;;;;6.76;84.54;98771.33;1807960;78;22813;-61
2021/04/21 03:04:17;;;;;;;6.10;5.60;;;;;;;6.72;84.67;98769.75;1807750;79;21085;-61
2021/04/21 03:06:49;;;;;;;6.00;5.40;;;;;;;6.69;84.80;98769.41;1807936;79;21065;-60
2021/04/21 03:09:25;;;;;;;5.55;5.05;;;;;;;6.66;84.93;98770.81;1807985;79;21200;-61
2021/04/21 03:11:54;;;;;;;6.25;5.65;;;;;;;6.62;85.06;98774.84;1806624;78;21059;-61
2021/04/21 03:14:26;;;;;;;5.70;4.80;;;;;;;6.59;85.15;98774.98;1807977;78;21526;-61
2021/04/21 03:16:59;;;;;;;5.85;5.25;;;;;;;6.59;85.27;98778.86;1807532;78;21076;-61
2021/04/21 03:19:34;;;;;;;6.20;5.58;;;;;;;6.59;85.43;98778.86;1808015;78;21045;-61
2021/04/21 03:22:14;;;;;;;5.70;5.20;;;;;;;6.59;85.50;98784.88;1807862;79;21049;-61
2021/04/21 03:24:49;;;;;;;6.67;6.08;;;;;;;6.57;85.58;98786.66;1807885;79;21089;-61
2021/04/21 03:27:16;;;;;;;6.30;5.80;;;;;;;6.56;85.57;98794.02;1808000;79;21184;-61
2021/04/21 03:29:48;;;;;;;5.55;5.05;;;;;;;6.52;85.57;98795.87;1807831;78;21050;-63
2021/04/21 03:32:26;;;;;;;6.55;5.90;;;;;;;6.51;85.61;98799.34;1807968;79;21066;-60
2021/04/21 03:34:55;;;;;;;7.03;6.30;;;;;;;6.48;85.72;98800.74;1807896;79;21069;-61
2021/04/21 03:38:07;;;;;;;6.75;6.05;;;;;;;6.47;85.83;98805.96;1808006;78;21477;-61
2021/04/21 03:40:36;;;;;;;6.53;5.92;;;;;;;6.45;85.92;98818.08;1807896;79;22349;-60
2021/04/21 03:43:04;;;;;;;7.70;6.50;;;;;;;6.42;86.09;98818.19;1807833;79;21074;-60
2021/04/21 03:45:33;;;;;;;6.58;5.87;;;;;;;6.42;86.19;98823.35;1807787;77;21561;-60
2021/04/21 03:48:00;;;;;;;7.25;6.60;;;;;;;6.43;86.26;98825.05;1807857;79;21105;-61
2021/04/21 03:50:29;;;;;;;7.85;7.15;;;;;;;6.45;86.42;98830.55;1807906;79;21599;-61
2021/04/21 03:53:05;;;;;;;7.60;6.35;;;;;;;6.49;86.50;98833.43;1807861;78;22103;-61
2021/04/21 03:55:35;;;;;;;6.60;6.00;;;;;;;6.56;86.46;98836.66;1807829;78;21061;-60
2021/04/21 03:58:08;;;;;;;8.33;6.30;;;;;;;6.63;86.38;98834.67;1807955;78;21126;-60
2021/04/21 04:00:37;;;;;;;6.53;5.90;;;;;;;6.73;86.43;98836.05;1807423;79;21085;-61
2021/04/21 04:03:09;;;;;;;7.45;6.60;;;;;;;6.82;86.17;98836.98;1807870;79;21084;-62
2021/04/21 04:05:57;;;;;;;6.97;6.28;;;;;;;6.88;85.93;98843.23;1807826;79;21420;-61
2021/04/21 04:08:26;;;;;;;7.08;6.22;;;;;;;6.95;85.81;98847.74;1807867;79;21069;-61
2021/04/21 04:10:55;;;;;;;7.00;5.55;;;;;;;7.05;85.56;98849.92;1807845;79;21055;-61
2021/04/21 04:13:23;;;;;;;6.85;6.15;;;;;;;7.17;85.35;98856.40;1807644;79;21058;-61
2021/04/21 04:15:50;;;;;;;8.45;6.17;;;;;;;7.39;85.33;98858.57;1807920;79;21132;-61
2021/04/21 04:18:18;;;;;;;9.95;9.05;;;;;;;7.67;84.80;98866.54;1807924;78;22324;-60
2021/04/21 04:20:45;;;;;;;7.60;6.90;;;;;;;7.88;83.79;98865.69;1807882;79;21494;-62
2021/04/21 04:23:13;;;;;;;6.42;5.83;;;;;;;7.96;82.86;98874.00;1807876;79;21073;-61
2021/04/21 04:25:49;;;;;;;6.87;5.83;;;;;;;7.98;82.31;98872.20;1807773;78;21148;-62
2021/04/21 04:28:19;;;;;;;6.22;5.72;;;;;;;8.00;81.95;98878.58;1807821;79;21061;-61
2021/04/21 04:30:46;;;;;;;6.37;5.78;;;;;;;8.01;82.00;98870.75;1807945;79;21482;-61
2021/04/21 04:33:16;;;;;;;6.72;6.03;;;;;;;8.08;81.60;98872.66;1807782;78;21085;-62
2021/04/21 04:35:44;;;;;;;7.03;5.70;;;;;;;8.16;81.39;98874.48;1807924;79;21474;-62
2021/04/21 04:38:11;;;;;;;6.50;5.85;;;;;;;8.38;81.38;98876.61;1807830;79;21097;-62
2021/04/21 04:40:39;;;;;;;5.78;5.22;;;;;;;8.72;80.84;98876.46;1807803;79;21566;-62
2021/04/21 04:43:08;;;;;;;6.53;5.92;;;;;;;9.10;79.82;98876.91;1807809;79;21357;-61
2021/04/21 04:45:38;;;;;;;7.47;6.00;;;;;;;9.44;78.58;98872.77;1807564;79;21054;-61
2021/04/21 04:48:10;;;;;;;17.27;15.68;;;;;;;9.82;77.29;98874.86;1807889;79;21077;-61
2021/04/21 04:50:39;;;;;;;7.53;6.83;;;;;;;10.24;76.21;98870.67;1807742;78;21076;-61
2021/04/21 04:53:06;;;;;;;6.85;6.05;;;;;;;10.67;74.91;98869.34;1807788;79;21070;-62
2021/04/21 04:55:34;;;;;;;7.03;6.33;;;;;;;11.00;73.08;98876.70;1807769;78;23507;-61
2021/04/21 04:58:01;;;;;;;8.03;7.37;;;;;;;11.17;71.42;98874.98;1807764;79;21109;-62
2021/04/21 05:00:29;;;;;;;8.03;6.53;;;;;;;11.18;70.71;98873.61;1807786;79;21097;-61
2021/04/21 05:03:24;;;;;;;7.25;5.65;;;;;;;11.18;70.03;98874.06;1804956;79;21141;-61
2021/04/21 05:05:55;;;;;;;6.60;6.00;;;;;;;11.11;69.48;98874.84;1803583;78;21568;-62
2021/04/21 05:08:31;;;;;;;6.67;6.05;;;;;;;10.95;69.51;98873.52;1786763;79;21357;-62
2021/04/21 05:11:05;;;;;;;7.33;5.97;;;;;;;10.89;69.56;98876.89;1785911;79;21208;-61
2021/04/21 05:13:42;;;;;;;6.80;6.20;;;;;;;10.88;69.55;98887.75;1791310;79;21200;-63
2021/04/21 05:16:27;;;;;;;6.33;5.83;;;;;;;10.91;68.72;98894.56;1774795;80;21104;-61
2021/04/21 05:19:35;;;;;;;10.53;7.37;;;;;;;10.89;68.78;98902.91;1780488;79;21057;-62
2021/04/21 05:22:28;;;;;;;9.65;8.75;;;;;;;10.87;69.07;98910.78;1775793;80;21521;-62
2021/04/21 05:25:42;;;;;;;9.20;8.10;;;;;;;10.87;69.17;98912.55;1775716;80;21089;-62
2021/04/21 05:28:39;;;;;;;8.60;7.80;;;;;;;10.85;69.03;98908.72;1775935;80;21553;-62
2021/04/21 05:31:55;;;;;;;8.13;6.87;;;;;;;10.83;68.87;98919.66;1772187;80;21057;-62
2021/04/21 05:34:49;;;;;;;7.15;5.45;;;;;;;10.79;68.48;98921.22;1775853;80;21138;-61
2021/04/21 05:37:31;;;;;;;9.20;8.23;;;;;;;10.74;69.10;98919.30;1776018;80;21187;-62
2021/04/21 05:40:44;;;;;;;11.30;10.20;;;;;;;10.70;69.25;98915.55;1773787;80;21180;-62
2021/04/21 05:43:53;;;;;;;20.10;15.20;;;;;;;10.72;69.10;98922.44;1775749;80;21153;-62
2021/04/21 05:47:06;;;;;;;13.53;9.90;;;;;;;10.85;68.81;98922.19;1872942;76;22729;-62
2021/04/21 05:49:59;;;;;;;16.12;9.05;;;;;;;10.84;68.77;98917.44;1841420;77;21064;-62
2021/04/21 05:53:19;;;;;;;9.95;7.03;;;;;;;11.03;68.67;98920.78;1841207;77;21342;-62
2021/04/21 05:56:32;;;;;;;7.70;6.92;;;;;;;11.34;68.06;98924.39;1841305;77;21509;-62
2021/04/21 05:59:44;;;;;;;7.65;6.53;;;;;;;11.63;66.87;98923.64;1841549;78;21093;-62
2021/04/21 06:02:13;;;;;;;9.58;7.87;;;;;;;11.72;65.30;98919.71;1838780;78;21140;-62
2021/04/21 06:04:42;;;;;;;16.02;8.23;;;;;;;11.76;65.42;98924.30;1841527;78;21030;-63
2021/04/21 06:07:15;;;;;;;18.67;8.40;;;;;;;11.89;65.35;98920.95;1811368;78;21065;-61
2021/04/21 06:09:43;;;;;;;15.50;6.78;;;;;;;12.01;64.43;98916.34;1835300;78;21608;-63
2021/04/21 06:12:14;;;;;;;6.75;6.10;;;;;;;12.06;63.58;98927.83;1826564;78;21148;-62
2021/04/21 06:14:44;;;;;;;11.83;6.22;;;;;;;12.09;63.18;98923.75;1840537;77;21152;-64
2021/04/21 06:17:12;;;;;;;6.30;5.28;;;;;;;12.13;62.55;98929.64;1840542;78;21097;-62
2021/04/21 06:19:44;;;;;;;14.60;6.67;;;;;;;12.12;62.18;98930.10;1841247;77;21291;-66
2021/04/21 06:22:12;;;;;;;24.77;6.85;;;;;;;12.19;62.16;98930.61;1831711;78;21608;-63
2021/04/21 06:24:40;;;;;;;9.88;6.12;;;;;;;12.31;61.75;98932.05;1808204;79;21168;-62
2021/04/21 06:27:11;;;;;;;7.10;5.50;;;;;;;12.34;61.34;98934.48;1808333;79;21057;-61
2021/04/21 06:29:40;;;;;;;15.23;6.53;;;;;;;12.35;60.71;98936.16;1808358;79;21386;-62
2021/04/21 06:32:15;;;;;;;13.10;7.58;;;;;;;12.31;60.87;98937.72;1808144;78;21593;-62
2021/04/21 06:34:43;;;;;;;18.12;7.08;;;;;;;12.28;61.01;98936.59;1808333;79;21568;-61
2021/04/21 06:37:12;;;;;;;8.05;5.40;;;;;;;12.29;60.65;98944.33;1805893;79;21136;-64
2021/04/21 06:39:40;;;;;;;9.80;4.72;;;;;;;12.28;59.61;98950.93;1807602;79;21180;-63
2021/04/21 06:42:09;;;;;;;10.55;5.28;;;;;;;12.22;59.53;98945.59;1806616;79;21140;-63
2021/04/21 06:44:46;;;;;;;5.72;5.10;;;;;;;12.25;58.97;98949.33;1798695;78;21713;-64
2021/04/21 06:47:26;;;;;;;10.28;6.35;;;;;;;12.27;59.22;98949.24;1808037;79;21105;-62
2021/04/21 06:50:06;;;;;;;8.10;5.75;;;;;;;12.32;58.78;98954.59;1807084;79;21180;-64
2021/04/21 06:52:36;;;;;;;8.75;7.10;;;;;;;12.44;58.55;98958.25;1805334;78;21830;-62
2021/04/21 06:55:10;;;;;;;8.63;6.37;;;;;;;12.64;58.17;98962.32;1782745;78;21137;-67
2021/04/21 06:57:39;;;;;;;8.80;5.10;;;;;;;12.83;57.34;98956.41;1771653;80;21430;-65
2021/04/21 07:00:14;;;;;;;14.47;6.60;;;;;;;12.89;56.51;98955.22;1803429;79;21262;-63
2021/04/21 07:02:43;;;;;;;6.08;5.15;;;;;;;12.89;56.94;98961.73;1802970;77;21184;-65
2021/04/21 07:05:39;;;;;;;7.40;5.17;;;;;;;12.93;56.90;98961.48;1804101;79;21180;-64
2021/04/21 07:08:19;;;;;;;13.20;6.17;;;;;;;12.94;55.68;98969.69;1747917;79;21153;-64
2021/04/21 07:10:50;;;;;;;12.03;6.00;;;;;;;12.86;56.46;98964.52;1776993;79;21371;-65
2021/04/21 07:13:33;;;;;;;7.12;6.42;;;;;;;12.85;57.19;98967.59;1777113;79;21561;-64
2021/04/21 07:16:03;;;;;;;6.50;5.53;;;;;;;12.89;56.83;98972.18;1806734;79;21215;-65
2021/04/21 07:18:41;;;;;;;16.27;12.15;;;;;;;12.87;56.75;98969.66;1806224;79;21172;-63
2021/04/21 07:21:10;;;;;;;10.85;7.53;;;;;;;12.94;56.65;98970.15;1805489;79;21100;-64
2021/04/21 07:23:38;;;;;;;7.33;5.25;;;;;;;12.99;55.52;98976.75;1804776;78;21213;-62
2021/04/21 07:26:06;;;;;;;12.15;4.85;;;;;;;13.03;54.75;98975.64;1805140;79;21121;-64
2021/04/21 07:28:36;;;;;;;6.72;5.12;;;;;;;13.17;55.02;98972.27;1804907;79;21527;-63
2021/04/21 07:31:18;;;;;;;6.22;4.47;;;;;;;13.40;55.22;98973.47;1805575;79;21255;-64
2021/04/21 07:33:49;;;;;;;8.08;4.75;;;;;;;13.56;53.03;98975.55;1766939;79;21104;-65
2021/04/21 07:36:20;;;;;;;5.35;4.85;;;;;;;13.47;52.64;98983.09;1789799;80;21349;-65
2021/04/21 07:38:57;;;;;;;5.90;4.17;;;;;;;13.43;53.08;98974.13;1789026;79;21174;-64
2021/04/21 07:41:42;;;;;;;9.80;5.15;;;;;;;13.50;52.84;98975.91;1788732;80;21202;-66
2021/04/21 07:44:36;;;;;;;6.65;4.87;;;;;;;13.55;52.88;98975.17;1788967;78;21171;-66
2021/04/21 07:47:10;;;;;;;6.78;3.70;;;;;;;13.55;51.86;98982.16;1774305;79;21196;-63
2021/04/21 07:49:55;;;;;;;6.90;4.22;;;;;;;13.40;52.00;98981.30;1804042;78;21616;-64
2021/04/21 07:52:32;;;;;;;8.35;4.85;;;;;;;13.34;50.50;98983.84;1791926;78;21645;-64
2021/04/21 07:55:16;;;;;;;6.47;4.65;;;;;;;13.38;50.93;98979.28;1807737;78;21489;-64
2021/04/21 07:57:57;;;;;;;12.20;5.60;;;;;;;13.41;50.59;98985.13;1802334;78;21486;-63
2021/04/21 08:00:30;;;;;;;9.85;4.17;;;;;;;13.46;49.69;98987.47;1784055;79;22357;-63
2021/04/21 08:03:00;;;;;;;4.22;3.83;;;;;;;13.42;48.56;98994.65;1803470;78;21357;-64
2021/04/21 08:05:31;;;;;;;8.08;3.90;;;;;;;13.39;49.28;98985.69;1803922;79;21173;-65
2021/04/21 08:08:01;;;;;;;6.75;4.50;;;;;;;13.34;49.30;98992.98;1804841;79;21152;-64
2021/04/21 08:10:34;;;;;;;33.53;10.40;;;;;;;13.32;50.12;98991.39;1801808;79;21010;-63
2021/04/21 08:13:03;;;;;;;10.05;6.17;;;;;;;13.38;50.82;98987.95;1803754;78;21668;-64
2021/04/21 08:15:37;;;;;;;13.65;5.72;;;;;;;13.63;50.18;98992.50;1804362;79;21790;-62
2021/04/21 08:18:11;;;;;;;12.80;5.15;;;;;;;13.71;50.71;98985.05;1804566;79;21635;-62
2021/04/21 08:20:51;;;;;;;7.20;5.55;;;;;;;13.80;50.42;98992.30;1805541;79;21136;-64
2021/04/21 08:23:18;;;;;;;11.63;4.45;;;;;;;13.91;49.98;98982.50;1792512;79;21102;-62
2021/04/21 08:25:48;;;;;;;12.07;5.95;;;;;;;13.96;48.94;98987.44;1804428;79;21545;-62
2021/04/21 08:28:15;;;;;;;10.32;5.65;;;;;;;13.89;48.98;98990.05;1803879;78;21417;-63
2021/04/21 08:30:54;;;;;;;9.53;5.42;;;;;;;13.83;49.32;98979.97;1803821;78;21152;-63
2021/04/21 08:33:22;;;;;;;12.53;5.25;;;;;;;13.88;48.74;98993.61;1804093;79;21173;-67
2021/04/21 08:35:56;;;;;;;7.10;4.55;;;;;;;13.93;48.31;98995.00;1804259;79;21474;-64
2021/04/21 08:38:35;;;;;;;4.35;3.33;;;;;;;13.98;47.77;99001.27;1803685;79;21632;-63
2021/04/21 08:41:10;;;;;;;4.47;2.72;;;;;;;14.07;46.32;99003.28;1804982;78;22091;-64
2021/04/21 08:43:46;;;;;;;6.37;2.70;;;;;;;14.13;44.78;99002.44;1805305;78;21133;-62
2021/04/21 08:46:15;;;;;;;9.78;3.17;;;;;;;14.15;43.43;99001.03;1807375;78;21647;-64
2021/04/21 08:48:43;;;;;;;7.53;3.87;;;;;;;14.17;43.88;99006.17;1793582;78;21647;-64
2021/04/21 08:51:16;;;;;;;8.48;4.72;;;;;;;14.17;44.22;99008.31;1809378;78;21112;-63
2021/04/21 08:53:54;;;;;;;5.62;3.52;;;;;;;14.24;44.73;98997.81;1811531;79;21389;-62
2021/04/21 08:56:22;;;;;;;8.63;3.92;;;;;;;14.36;44.26;98995.73;1809860;79;21704;-62
2021/04/21 08:58:51;;;;;;;5.90;2.77;;;;;;;14.54;43.11;98995.05;1800029;79;21190;-62
2021/04/21 09:01:19;;;;;;;6.62;2.67;;;;;;;14.61;42.38;98996.30;1810420;78;21171;-62
2021/04/21 09:03:49;;;;;;;3.70;2.87;;;;;;;14.59;41.79;98993.45;1808220;79;21640;-62
2021/04/21 09:06:18;;;;;;;5.17;2.80;;;;;;;14.52;42.10;98993.00;1810814;78;22260;-62
2021/04/21 09:08:46;;;;;;;2.92;2.62;;;;;;;14.46;42.37;98991.61;1809703;79;21159;-62
2021/04/21 09:11:15;;;;;;;5.87;3.33;;;;;;;14.49;42.92;98990.58;1810783;79;21633;-64
2021/04/21 09:13:42;;;;;;;11.45;2.90;;;;;;;14.59;42.57;98986.41;1810543;78;21423;-63
2021/04/21 09:16:11;;;;;;;10.40;3.08;;;;;;;14.62;41.59;98994.06;1809630;79;21698;-64
2021/04/21 09:18:40;;;;;;;3.42;2.60;;;;;;;14.57;42.18;98996.16;1810874;79;21200;-63
2021/04/21 09:21:19;;;;;;;4.62;3.22;;;;;;;14.59;42.25;98992.95;1810492;78;21187;-63
2021/04/21 09:23:48;;;;;;;3.77;3.37;;;;;;;14.64;42.20;98990.88;1809504;79;21159;-64
2021/04/21 09:26:19;;;;;;;5.47;3.08;;;;;;;14.79;41.82;98991.64;1810631;78;21255;-65
2021/04/21 09:28:49;;;;;;;13.88;4.25;;;;;;;14.89;41.77;98994.03;1810823;79;21183;-63
2021/04/21 09:31:23;;;;;;;5.65;4.00;;;;;;;14.96;42.31;98990.07;1810611;78;21420;-62
2021/04/21 09:34:13;;;;;;;3.50;3.20;;;;;;;15.11;41.85;98986.88;1812294;79;21180;-63
2021/04/21 09:36:46;;;;;;;4.03;3.37;;;;;;;15.13;41.94;98979.77;1803197;78;21164;-62
2021/04/21 09:39:23;;;;;;;3.83;2.75;;;;;;;15.17;41.78;98994.34;1812978;78;21136;-63
2021/04/21 09:42:00;;;;;;;3.72;2.72;;;;;;;15.18;41.34;98982.92;1813551;79;21611;-61
2021/04/21 09:44:31;;;;;;;4.75;2.95;;;;;;;15.06;41.61;98985.03;1813390;78;21363;-62
2021/04/21 09:47:01;;;;;;;7.37;4.05;;;;;;;14.87;42.58;98988.05;1813109;78;21093;-62
2021/04/21 09:49:38;;;;;;;9.70;3.40;;;;;;;14.78;42.67;98985.59;1786545;79;21080;-61
2021/04/21 09:52:24;;;;;;;8.90;3.55;;;;;;;14.70;43.27;98994.87;1813408;79;21058;-63
2021/04/21 09:54:52;;;;;;;8.90;3.92;;;;;;;14.62;43.63;98999.30;1812566;79;21097;-62
2021/04/21 09:57:31;;;;;;;4.22;3.30;;;;;;;14.57;43.65;99005.79;1813382;79;22268;-62
2021/04/21 10:00:05;;;;;;;6.97;4.33;;;;;;;14.62;44.06;98995.84;1812858;79;21521;-61
2021/04/21 10:02:34;;;;;;;13.78;4.70;;;;;;;14.68;44.59;98990.20;1813382;79;21117;-62
2021/04/21 10:05:27;;;;;;;12.13;4.72;;;;;;;14.79;43.89;98989.86;1813333;79;21202;-61
2021/04/21 10:08:18;;;;;;;5.97;4.72;;;;;;;14.82;43.61;98993.59;1808585;78;21187;-62
2021/04/21 10:11:01;;;;;;;5.78;4.12;;;;;;;14.82;42.88;99000.13;1779499;80;21397;-61
2021/04/21 10:13:48;;;;;;;9.93;4.78;;;;;;;14.73;43.09;99000.75;1780426;80;21069;-62
2021/04/21 10:16:19;;;;;;;7.20;4.53;;;;;;;14.58;44.84;99012.70;1801917;77;21151;-64
2021/04/21 10:18:46;;;;;;;8.95;4.72;;;;;;;14.47;45.02;99007.68;1776268;79;21165;-63
2021/04/21 10:21:17;;;;;;;6.67;4.60;;;;;;;14.36;44.19;99007.52;1760335;81;21633;-63
2021/04/21 10:23:46;;;;;;;9.80;4.85;;;;;;;14.34;44.99;99008.08;1761880;81;22279;-63
2021/04/21 10:26:15;;;;;;;27.20;6.55;;;;;;;14.34;45.66;99015.92;1783776;79;21129;-62
2021/04/21 10:28:44;;;;;;;7.72;4.72;;;;;;;14.31;45.95;99010.05;1738150;81;21156;-62
2021/04/21 10:31:16;;;;;;;6.05;4.12;;;;;;;14.27;45.70;99000.70;1726373;83;21149;-63
2021/04/21 10:33:44;;;;;;;9.63;4.50;;;;;;;14.25;45.93;99003.89;1730383;83;21145;-62
2021/04/21 10:36:13;;;;;;;4.80;4.12;;;;;;;14.35;46.32;99004.52;1738588;82;21155;-62
2021/04/21 10:38:42;;;;;;;6.75;4.47;;;;;;;14.54;45.29;98998.97;1729315;82;21271;-63
2021/04/21 10:41:35;;;;;;;11.15;4.60;;;;;;;14.62;45.52;98994.53;1726026;83;21165;-63
2021/04/21 10:44:13;;;;;;;8.88;3.90;;;;;;;14.66;44.82;98998.16;1750039;80;21598;-63
2021/04/21 10:47:02;;;;;;;12.03;3.85;;;;;;;14.70;44.97;98997.49;1753232;80;21141;-62
2021/04/21 10:49:39;;;;;;;7.25;3.65;;;;;;;14.79;44.43;99000.80;1749724;80;21453;-62
2021/04/21 10:52:28;;;;;;;12.60;4.03;;;;;;;14.72;43.13;98994.31;1749865;82;21614;-62
2021/04/21 10:55:11;;;;;;;7.80;4.28;;;;;;;14.66;43.41;99001.25;1737017;82;21212;-61
2021/04/21 10:58:09;;;;;;;6.33;4.00;;;;;;;14.59;43.05;99001.30;1725036;82;21192;-63
2021/04/21 11:00:44;;;;;;;35.95;6.03;;;;;;;14.52;42.89;99007.39;1750211;80;21062;-61
2021/04/21 11:03:26;;;;;;;11.18;3.75;;;;;;;14.59;42.31;99000.80;1750568;80;21374;-61
2021/04/21 11:05:57;;;;;;;7.47;3.72;;;;;;;14.68;42.65;99006.75;1750237;81;21085;-62
2021/04/21 11:08:52;;;;;;;21.60;3.95;;;;;;;14.77;42.23;98998.31;1738846;81;21142;-61
2021/04/21 11:11:33;;;;;;;4.87;3.40;;;;;;;14.84;42.46;98997.41;1738035;80;21487;-61
2021/04/21 11:14:02;;;;;;;4.28;3.87;;;;;;;14.87;42.41;98993.29;1750622;82;21581;-60
2021/04/21 11:16:34;;;;;;;4.45;3.45;;;;;;;14.80;41.39;99002.01;1750468;82;21190;-61
2021/04/21 11:19:23;;;;;;;5.92;3.33;;;;;;;14.71;41.57;98992.16;1750441;82;21066;-61
2021/04/21 11:22:14;;;;;;;4.25;3.37;;;;;;;14.69;40.98;98995.81;1750568;80;21177;-62
2021/04/21 11:25:20;;;;;;;9.23;4.20;;;;;;;14.65;42.03;98993.02;1750140;82;21573;-62
2021/04/21 11:27:49;;;;;;;4.55;4.15;;;;;;;14.67;43.51;98991.98;1748274;81;21074;-62
2021/04/21 11:30:59;;;;;;;13.20;4.70;;;;;;;14.69;43.81;98994.04;1735897;80;21381;-63
2021/04/21 11:33:55;;;;;;;7.47;3.65;;;;;;;14.73;44.46;98998.61;1735823;80;21138;-65
2021/04/21 11:36:49;;;;;;;7.97;4.47;;;;;;;14.81;44.28;98996.30;1749973;82;21609;-63
2021/04/21 11:39:55;;;;;;;6.08;4.17;;;;;;;14.93;43.14;98992.89;1750018;82;21193;-62
2021/04/21 11:42:45;;;;;;;10.00;4.83;;;;;;;15.12;43.07;98988.56;1749925;82;21625;-62
2021/04/21 11:45:28;;;;;;;5.10;4.03;;;;;;;15.38;41.26;98987.64;1750410;80;22257;-61
2021/04/21 11:48:08;;;;;;;6.25;3.30;;;;;;;15.53;40.78;98986.20;1750357;80;21106;-62
2021/04/21 11:50:40;;;;;;;6.37;3.40;;;;;;;15.66;39.93;98987.89;1741922;81;21170;-62
2021/04/21 11:53:24;;;;;;;6.15;3.72;;;;;;;15.70;39.89;98982.80;1760803;81;21216;-65
2021/04/21 11:55:57;;;;;;;6.92;3.45;;;;;;;15.63;39.66;98976.77;1745067;80;21197;-62
2021/04/21 11:58:32;;;;;;;11.00;3.80;;;;;;;15.56;39.99;98969.83;1723340;82;22256;-62
2021/04/21 12:01:04;;;;;;;15.48;4.10;;;;;;;15.61;39.98;98964.24;1730162;82;21629;-62
2021/04/21 12:03:37;;;;;;;4.37;3.98;;;;;;;15.65;40.05;98965.70;1747461;80;21606;-62
2021/04/21 12:06:10;;;;;;;;;;;;;;;15.69;40.05;98970.63;1749835;82;21181;-62
2021/04/21 12:08:46;;;;;;;10.50;5.17;;;;;;;15.73;40.12;98960.30;1762527;80;20218;-63
2021/04/21 12:11:28;;;;;;;6.22;4.62;;;;;;;15.79;41.04;98965.09;1736472;81;22465;-62
2021/04/21 12:13:56;;;;;;;5.92;4.20;;;;;;;15.86;41.13;98965.51;1737435;80;21074;-62
2021/04/21 12:16:26;;;;;;;5.55;4.30;;;;;;;15.89;40.72;98959.21;1747420;80;21197;-66
2021/04/21 12:18:57;;;;;;;5.08;4.50;;;;;;;15.97;40.90;98959.04;1742325;80;21561;-63
2021/04/21 12:21:41;;;;;;;5.22;4.15;;;;;;;16.12;40.65;98948.75;1747325;80;21542;-62
2021/04/21 12:24:08;;;;;;;13.72;4.65;;;;;;;16.22;39.86;98955.47;1748048;82;21215;-62